Rawlins, WY

5:19 AM MDT on July 30, 2014 (GMT -0600)
Rawlins Municipal (KRWL) Elev 6814 ft | 41.81 °N, 107.20 °W | Change Station
Active Advisory: Areal Flood Advisory

Current weather conditions updated 26 minutes ago

Light Rain
Light Rain
53 °F
Feels Like 53 °F
N
14
Wind Variable Wind from ENE

Today is forecast to be Much Cooler than yesterday. Thunderstorms.

Today
High -- | Low -- °F
--% Chance of Precip.
Yesterday
High -- | Low -- °F
Precip. -- in
6:01 AM 8:29 PM
Waxing Crescent, 11% visible
Pressure 30.17 in
Visibility 7.0 miles
Clouds Scattered Clouds 800 ft
Scattered Clouds 2400 ft
Overcast 4000 ft
Dew Point 52 °F
Humidity 96%
Rainfall 0.01 in
Snow Depth Not available.
UV 0 out of 12
Pollen 5.00 out of 12
Air Quality Not available.
Flu Activity Not available.
METAR KRWL 301053Z AUTO 06012KT 7SM -RA SCT008 SCT024 OVC040 12/11 A3035 RMK AO2 RAE0959B42 SLP214 P0000 T01170111

More Conditions Fewer Conditions

Pressure 30.17 in
Visibility 7.0 miles
Clouds Scattered Clouds 800 ft
Scattered Clouds 2400 ft
Overcast 4000 ft
Dew Point 52 °F
Humidity 96%
Rainfall 0.01 in
Snow Depth Not available.
UV 0 out of 12
Pollen 5.00 out of 12
Air Quality Not available.
Flu Activity Not available.
METAR KRWL 301053Z AUTO 06012KT 7SM -RA SCT008 SCT024 OVC040 12/11 A3035 RMK AO2 RAE0959B42 SLP214 P0000 T01170111

More Conditions Fewer Conditions

10-Day Weather Forecast

Almanac

Astronomy

Jul. 30, 2014 Rise Set
Actual Time 6:01 AM MDT 8:29 PM MDT
Civil Twilight 5:29 AM MDT 9:00 PM MDT
Nautical Twilight 4:50 AM MDT 9:39 PM MDT
Astronomical Twilight 4:05 AM MDT 10:23 PM MDT
Moon 9:39 AM MDT 10:08 PM MDT
Length of Visible Light 15h 31m
Length of Day
14h 28m
Tomorrow will be 2m 4s shorter.
Waxing Crescent, 11% of the Moon is Illuminated
Today
Waxing Crescent
Aug 3
First Quarter
Aug 10
Full
Aug 17
Last Quarter
Aug 25
New

Today's Extremes

State Highs State Lows

Community

WunderPhotos

Upload Photos

1,739,039 photos uploaded!

Nearby

Snow Depth

Station Depth Elevation
Sage Creek Basin 0 in 7850 ft
Divide Peak 0 in 8860 ft
Webber Springs 0 in 9250 ft
Old Battle 0 in 9920 ft
Sandstone R.S. 7 in 8150 ft

Earthquake Activity

City Distance Mag. Time & Date
No recent earthquake activity has been reported nearby.
Minimum magnitude displayed is 2.5.

Coastal Water Temperatures

Place Temperature
No Stations Reporting

Nearby Weather Stations

Station Location Temp. Dew Point Humidity Wind Precip. Elev Updated Type
Rawlins, WY 57.0 °F - - NNE  at  0.0 mph 0.00 in / hr 7487 ft 5:19 AM MDT Rapid Fire
Downtown, Sinclair, Wy 54.5 °F 52 °F 93% NE  at  6.6 mph 0.00 in / hr 6611 ft 5:19 AM MDT Rapid Fire
MesoWest HADSL1 , Rawlins, WY 51 °F - - North  at  - 0.00 in / hr 6860 ft 4:00 AM MDT MADIS
HADS NORTH PLATTE RIVER ABOVE SEMINOE WY, Sinclair, WY 55 °F - - North  at  - 0.00 in / hr 6399 ft 4:45 AM MDT MADIS

Show More Stations Show Fewer Stations